MDT,Max TemperatureF,Mean TemperatureF,Min TemperatureF,Max Dew PointF,MeanDew PointF,Min DewpointF,Max Humidity, Mean Humidity, Min Humidity, Max Sea Level PressureIn, Mean Sea Level PressureIn, Min Sea Level PressureIn, Max VisibilityMiles, Mean VisibilityMiles, Min VisibilityMiles, Max Wind SpeedMPH, Mean Wind SpeedMPH, Max Gust SpeedMPH,PrecipitationIn, CloudCover, Events, WindDirDegrees
2013-3-1,43,34,24,28,24,17,78,68,57,30.51,30.45,30.34,10,10,10,35,23,40,0.00,1,,257
2013-3-2,51,40,29,28,25,23,78,57,36,30.47,30.31,30.03,10,10,10,22,11,25,0.00,0,,233
2013-3-3,41,37,32,34,28,21,82,67,52,30.00,29.86,29.78,10,9,2,29,17,38,T,5,Rain-Snow,248
2013-3-4,33,26,18,25,9,1,75,52,28,30.32,30.05,29.79,10,10,10,25,15,33,0.00,4,,288
2013-3-5,45,29,13,10,6,3,67,45,22,30.38,30.23,30.07,10,10,10,14,5,17,0.00,0,,205
2013-3-6,51,37,23,21,16,8,54,39,24,30.04,29.87,29.75,10,10,10,30,13,37,0.00,1,,196
2013-3-7,49,39,28,28,21,14,82,54,26,30.03,29.93,29.83,10,10,10,18,6,22,0.00,4,,276
2013-3-8,48,38,28,31,26,21,89,64,38,29.88,29.77,29.68,10,8,0,16,4,20,T,4,Fog-Snow,31
2013-3-9,38,32,25,31,24,13,92,70,47,30.22,29.86,29.65,10,7,0,30,16,37,T,7,Fog-Snow,52
2013-3-10,46,33,19,20,16,13,77,54,31,30.34,30.24,30.15,10,10,10,32,17,36,0.00,1,,245
2013-3-11,46,38,30,26,20,14,70,55,40,30.18,30.09,30.00,10,10,9,40,22,49,T,4,,263
2013-3-12,47,38,29,27,25,21,78,58,37,30.27,30.20,30.09,10,10,10,29,15,33,0.00,3,,271
2013-3-13,58,46,33,28,25,21,70,48,25,30.33,30.27,30.21,10,10,10,26,16,37,0.00,0,,263
2013-3-14,65,49,32,25,21,16,72,46,19,30.31,30.22,30.08,10,10,10,26,10,32,0.00,0,,251
2013-3-15,62,51,39,25,18,10,45,30,14,30.05,29.96,29.89,10,10,10,32,17,40,0.00,1,,265
2013-3-16,53,43,32,22,13,1,52,33,13,29.90,29.83,29.75,10,10,10,36,16,45,0.00,1,,253
2013-3-17,38,29,19,29,18,-2,82,52,22,30.01,29.76,29.63,10,7,1,55,25,69,T,5,Snow,261
2013-3-18,40,30,20,13,8,3,62,46,29,30.06,30.01,29.98,10,10,10,39,23,47,T,4,,263
2013-3-19,44,32,19,12,-3,-10,50,30,10,30.29,30.20,30.05,10,10,10,32,12,39,0.00,0,,271
2013-3-20,44,33,21,32,16,-9,76,48,19,30.21,30.00,29.80,10,8,0,30,9,35,T,4,Fog-Rain-Snow,234
2013-3-21,36,28,20,31,23,3,92,65,37,30.01,29.76,29.63,10,7,0,39,20,51,T,5,Fog-Snow,256
2013-3-22,30,23,15,16,11,5,84,60,35,29.98,29.89,29.78,10,7,0,25,11,30,T,5,Fog-Snow,271
2013-3-23,23,18,12,16,12,6,88,73,57,30.25,30.05,29.85,10,5,1,24,9,30,T,7,Snow,11
2013-3-24,28,19,10,6,3,-4,76,51,26,30.31,30.25,30.22,10,10,10,22,10,29,0.00,4,,284
2013-3-25,36,22,7,10,3,-4,76,47,18,30.39,30.28,30.16,10,10,10,15,5,18,0.00,0,,185
2013-3-26,50,36,21,30,18,8,85,56,27,30.14,30.01,29.88,10,10,10,24,5,28,0.00,5,,192
2013-3-27,54,40,26,27,23,17,92,58,24,30.09,30.01,29.94,10,8,1,23,7,33,0.00,2,,274
2013-3-28,59,43,26,31,22,17,63,42,21,30.10,30.04,29.99,10,10,10,24,6,36,T,4,Rain,213
2013-3-29,60,46,32,29,25,21,75,50,24,30.13,30.08,30.01,10,10,10,29,13,36,0.00,1,,266
2013-3-30,59,47,34,27,20,11,64,40,16,30.14,30.09,30.03,10,10,10,31,15,38,0.00,2,,274
2013-3-31,62,44,26,21,13,2,63,37,10,30.13,30.03,29.94,10,10,10,24,10,28,0.00,0,,268